Concordia College, Minnesota
Current Conditions -  °F | °C
As of 9:07 AM on Wednesday 26 Nov 2014 (Local Time) from KFAR Reporting Station
Overcast Overcast  
Wind Chill: -17°   Ceiling: 6000
Heat Index:   Visibility: 9mi
Dew Point: -3°   Wind: 18mph
Humidity: 76%   Direction: 350°N
Pressure: 30.36"   Gusts: NA
Location:  46.8619°N, 96.7661°W
Report Text: KFAR 261507Z 35016KT 9SM FEW007 BKN060 OVC110 M16/M19 A3036 RMK AO2 T11611194
Loading
Personal Weather Stations






























Interactive Weather Map New forecast layout! Learn more

10-Day Weather Forecast

Advertisements
Track Severe Weather on mobile